Time;durP1;ratioP1;P1;durP2;ratioP2;P2;SDS_P1;SDS_P2;PMS_P1;PMS_P2;Temp;Humidity;BMP_temperature;BMP_pressure;BME280_temperature;BME280_humidity;BME280_pressure;Samples;Min_cycle;Max_cycle;Signal;HPM_P1;HPM_P2
2023/05/16 00:00:20;;;;;;;10.60;9.63;;;14.50;62.20;;;;;;20802;6819;117875;-75
2023/05/16 00:02:45;;;;;;;10.00;9.20;;;14.40;62.40;;;;;;20798;6819;117873;-75
2023/05/16 00:05:13;;;;;;;10.37;9.77;;;14.20;63.30;;;;;;20571;6819;316764;-75
2023/05/16 00:07:36;;;;;;;10.60;9.90;;;14.30;62.90;;;;;;20585;6819;281171;-75
2023/05/16 00:10:02;;;;;;;8.30;7.60;;;14.60;61.60;;;;;;20807;6819;117281;-75
2023/05/16 00:12:28;;;;;;;7.87;7.37;;;14.50;61.80;;;;;;20800;6819;117330;-75
2023/05/16 00:14:54;;;;;;;10.10;9.50;;;14.20;62.60;;;;;;20587;6819;311056;-79
2023/05/16 00:17:19;;;;;;;9.80;9.23;;;14.30;62.50;;;;;;20437;6819;336120;-75
2023/05/16 00:19:46;;;;;;;10.25;9.65;;;14.50;61.80;;;;;;20604;6819;309469;-76
2023/05/16 00:22:13;;;;;;;10.40;9.70;;;14.80;61.10;;;;;;20594;6819;307962;-76
2023/05/16 00:24:38;;;;;;;11.02;10.23;;;14.90;60.30;;;;;;20593;6819;278390;-77
2023/05/16 00:27:04;;;;;;;8.87;8.30;;;15.00;59.60;;;;;;20783;6819;119689;-76
2023/05/16 00:29:29;;;;;;;8.60;7.90;;;14.80;60.20;;;;;;20802;6819;117791;-76
2023/05/16 00:31:55;;;;;;;8.30;7.60;;;14.40;61.20;;;;;;20798;6819;117341;-75
2023/05/16 00:34:22;;;;;;;10.40;9.63;;;14.20;62.50;;;;;;20584;6819;310905;-75
2023/05/16 00:36:48;;;;;;;9.20;8.57;;;14.10;62.40;;;;;;20803;6819;117720;-76
2023/05/16 00:39:14;;;;;;;9.67;9.17;;;14.10;62.70;;;;;;20564;6819;287662;-75
2023/05/16 00:41:39;;;;;;;9.50;9.00;;;14.20;62.00;;;;;;20594;6819;307386;-76
2023/05/16 00:44:05;;;;;;;9.98;9.30;;;14.50;61.50;;;;;;20582;6819;307114;-76
2023/05/16 00:46:31;;;;;;;9.43;8.83;;;14.90;61.50;;;;;;20601;6819;278106;-76
2023/05/16 00:48:58;;;;;;;8.47;7.90;;;14.90;60.90;;;;;;20790;6817;117054;-76
2023/05/16 00:51:23;;;;;;;8.90;8.30;;;14.70;61.20;;;;;;20598;6818;299659;-76
2023/05/16 00:53:49;;;;;;;9.70;9.10;;;14.70;60.60;;;;;;20592;6818;277121;-77
2023/05/16 00:56:15;;;;;;;8.95;8.15;;;14.90;60.20;;;;;;20809;6818;117308;-77
2023/05/16 00:58:41;;;;;;;9.03;8.47;;;14.70;60.60;;;;;;20573;6818;306693;-77
2023/05/16 01:01:07;;;;;;;9.05;8.45;;;14.70;60.20;;;;;;20576;6818;306672;-77
2023/05/16 01:03:34;;;;;;;8.63;8.13;;;14.70;60.00;;;;;;20801;6818;117589;-78
2023/05/16 01:05:58;;;;;;;9.53;8.63;;;14.70;60.00;;;;;;20592;6818;290677;-76
2023/05/16 01:08:24;;;;;;;9.05;8.52;;;14.70;59.80;;;;;;20587;6818;328349;-77
2023/05/16 01:11:20;;;;;;;8.60;7.90;;;14.90;59.20;;;;;;20807;6819;120232;-77
2023/05/16 01:13:52;;;;;;;9.10;8.60;;;14.70;59.70;;;;;;20591;6819;304641;-76
2023/05/16 01:16:22;;;;;;;9.03;7.73;;;14.60;59.70;;;;;;20781;6819;117536;-77
2023/05/16 01:18:57;;;;;;;8.07;7.37;;;14.50;59.60;;;;;;20771;6819;117085;-76
2023/05/16 01:21:24;;;;;;;7.47;6.97;;;14.20;60.50;;;;;;20763;6819;117762;-77
2023/05/16 01:24:00;;;;;;;7.27;6.77;;;13.90;61.70;;;;;;20769;6819;121336;-77
2023/05/16 01:26:25;;;;;;;9.63;9.02;;;13.80;62.60;;;;;;20558;6819;335641;-77
2023/05/16 01:28:53;;;;;;;10.47;9.90;;;14.30;60.60;;;;;;20588;6819;307480;-76
2023/05/16 01:31:18;;;;;;;10.90;10.00;;;14.20;60.40;;;;;;20569;6819;307525;-77
2023/05/16 01:33:45;;;;;;;10.37;9.47;;;14.30;60.40;;;;;;20798;6819;117387;-76
2023/05/16 01:36:23;;;;;;;10.77;10.07;;;14.30;60.50;;;;;;20595;6819;277613;-77
2023/05/16 01:38:56;;;;;;;10.88;10.18;;;14.30;60.50;;;;;;20554;6819;336057;-80
2023/05/16 01:41:43;;;;;;;10.55;9.85;;;14.70;59.70;;;;;;20585;6819;337304;-83
2023/05/16 01:44:22;;;;;;;8.67;8.17;;;14.70;59.70;;;;;;20807;6819;117788;-76
2023/05/16 01:46:48;;;;;;;10.53;9.83;;;14.40;60.40;;;;;;20578;6819;278429;-77
2023/05/16 01:49:16;;;;;;;9.32;8.88;;;14.50;61.40;;;;;;20561;6819;306521;-76
2023/05/16 01:51:50;;;;;;;8.53;7.93;;;14.60;61.30;;;;;;20801;6819;118369;-75
2023/05/16 01:54:15;;;;;;;9.93;9.32;;;14.50;61.20;;;;;;20582;6819;277638;-76
2023/05/16 01:56:42;;;;;;;10.80;10.10;;;14.80;60.10;;;;;;20578;6819;311992;-76
2023/05/16 01:59:07;;;;;;;9.87;9.37;;;14.80;60.00;;;;;;20556;6819;308419;-76
2023/05/16 02:01:33;;;;;;;9.47;8.90;;;15.00;59.80;;;;;;20593;6817;277568;-76
2023/05/16 02:03:58;;;;;;;8.40;7.80;;;15.20;59.20;;;;;;20800;6818;118741;-76
2023/05/16 02:06:25;;;;;;;8.68;7.97;;;15.00;59.80;;;;;;20810;6818;117449;-76
2023/05/16 02:08:51;;;;;;;9.73;9.13;;;14.70;60.40;;;;;;20584;6818;306559;-76
2023/05/16 02:11:17;;;;;;;8.47;7.87;;;14.70;60.40;;;;;;20795;6818;118716;-76
2023/05/16 02:13:43;;;;;;;8.03;7.53;;;14.40;61.80;;;;;;20788;6818;121066;-76
2023/05/16 02:16:09;;;;;;;9.07;8.57;;;14.40;61.80;;;;;;20592;6818;312318;-76
2023/05/16 02:18:34;;;;;;;8.23;7.50;;;14.50;61.40;;;;;;20799;6818;117041;-77
2023/05/16 02:21:00;;;;;;;9.17;8.67;;;14.50;61.70;;;;;;20558;6819;297433;-78
2023/05/16 02:23:26;;;;;;;8.23;7.72;;;14.60;61.40;;;;;;20808;6819;117590;-77
2023/05/16 02:25:51;;;;;;;8.23;7.70;;;14.60;61.20;;;;;;20806;6819;117027;-77
2023/05/16 02:28:17;;;;;;;9.23;8.73;;;14.40;61.80;;;;;;20604;6819;307860;-77
2023/05/16 02:30:42;;;;;;;9.63;9.03;;;14.50;61.60;;;;;;20605;6819;307082;-77
2023/05/16 02:33:09;;;;;;;8.40;7.83;;;14.70;61.00;;;;;;20777;6819;117681;-77
2023/05/16 02:35:34;;;;;;;10.00;9.40;;;14.70;61.00;;;;;;20594;6819;307029;-77
2023/05/16 02:38:00;;;;;;;9.83;9.33;;;14.80;60.50;;;;;;20598;6819;337205;-77
2023/05/16 02:40:27;;;;;;;9.95;9.35;;;15.20;59.50;;;;;;20599;6819;277776;-78
2023/05/16 02:42:54;;;;;;;10.77;9.98;;;15.40;59.00;;;;;;20597;6819;307319;-77
2023/05/16 02:45:19;;;;;;;10.57;9.77;;;15.30;58.90;;;;;;20435;6819;299317;-77
2023/05/16 02:47:45;;;;;;;9.77;9.27;;;15.40;58.60;;;;;;20593;6819;277238;-77
2023/05/16 02:50:11;;;;;;;20.80;10.17;;;15.50;58.20;;;;;;20588;6819;291971;-77
2023/05/16 02:52:36;;;;;;;34.50;31.83;;;15.60;58.60;;;;;;20796;6819;118367;-77
2023/05/16 02:55:02;;;;;;;10.87;10.13;;;15.40;59.40;;;;;;20559;6819;277909;-77
2023/05/16 02:57:27;;;;;;;8.63;8.13;;;15.30;58.80;;;;;;20798;6819;117774;-77
2023/05/16 02:59:53;;;;;;;8.57;8.13;;;15.10;59.50;;;;;;20805;6819;122922;-77
2023/05/16 03:02:19;;;;;;;11.20;10.23;;;14.80;60.40;;;;;;20589;6819;278309;-77
2023/05/16 03:04:45;;;;;;;11.67;10.87;;;14.80;60.40;;;;;;20586;6819;307107;-77
2023/05/16 03:07:10;;;;;;;9.83;9.23;;;15.00;59.80;;;;;;20783;6819;117743;-77
2023/05/16 03:09:36;;;;;;;11.12;10.32;;;14.90;60.20;;;;;;20596;6819;337031;-77
2023/05/16 03:12:01;;;;;;;11.25;10.55;;;14.90;60.40;;;;;;20599;6817;278165;-77
2023/05/16 03:14:27;;;;;;;11.57;10.87;;;15.10;60.40;;;;;;20600;6818;336536;-77
2023/05/16 03:16:52;;;;;;;10.43;9.43;;;15.30;59.30;;;;;;20809;6818;117823;-77
2023/05/16 03:19:19;;;;;;;17.37;9.53;;;14.80;60.80;;;;;;20796;6818;119107;-77
2023/05/16 03:21:44;;;;;;;23.23;9.63;;;14.70;60.70;;;;;;20813;6818;117907;-77
2023/05/16 03:24:10;;;;;;;13.23;12.10;;;14.50;61.70;;;;;;20593;6818;308359;-77
2023/05/16 03:26:35;;;;;;;9.97;9.47;;;14.50;61.50;;;;;;20808;6818;123764;-77
2023/05/16 03:29:01;;;;;;;37.75;12.55;;;14.50;61.70;;;;;;20575;6818;278043;-77
2023/05/16 03:31:26;;;;;;;151.10;15.90;;;14.60;61.70;;;;;;20587;6818;307040;-76
2023/05/16 03:33:52;;;;;;;12.33;11.57;;;14.80;60.30;;;;;;20586;6819;336468;-77
2023/05/16 03:36:18;;;;;;;11.07;10.37;;;15.00;60.00;;;;;;20590;6819;281266;-77
2023/05/16 03:38:44;;;;;;;11.73;11.02;;;15.20;59.90;;;;;;20591;6819;278897;-77
2023/05/16 03:41:10;;;;;;;11.17;10.47;;;15.30;59.30;;;;;;20584;6819;308053;-77
2023/05/16 03:43:36;;;;;;;11.30;10.60;;;15.40;59.00;;;;;;20603;6819;306785;-77
2023/05/16 03:46:01;;;;;;;9.93;9.32;;;15.50;59.10;;;;;;20809;6819;118681;-76
2023/05/16 03:48:26;;;;;;;12.93;12.02;;;15.20;59.80;;;;;;20604;6819;293800;-75
2023/05/16 03:50:53;;;;;;;15.23;14.13;;;15.30;58.70;;;;;;20590;6819;307531;-75
2023/05/16 03:53:18;;;;;;;16.13;14.80;;;15.30;58.70;;;;;;20568;6819;336733;-75
2023/05/16 03:55:44;;;;;;;12.82;11.73;;;15.50;58.50;;;;;;20798;6819;117938;-75
2023/05/16 03:58:10;;;;;;;18.58;16.98;;;15.20;59.10;;;;;;20597;6819;281675;-75
2023/05/16 04:00:35;;;;;;;14.37;13.13;;;15.20;59.60;;;;;;20792;6819;119752;-75
2023/05/16 04:03:01;;;;;;;19.27;17.47;;;15.00;60.10;;;;;;20784;6819;117925;-76
2023/05/16 04:05:27;;;;;;;21.15;19.35;;;14.80;61.50;;;;;;20607;6819;285423;-75
2023/05/16 04:07:55;;;;;;;20.73;19.00;;;14.90;63.00;;;;;;20509;6819;302792;-76
2023/05/16 04:10:21;;;;;;;22.52;20.62;;;15.30;62.50;;;;;;20579;6819;339542;-77
2023/05/16 04:12:46;;;;;;;19.90;17.93;;;15.50;61.30;;;;;;20797;6819;117516;-77
2023/05/16 04:15:12;;;;;;;20.87;19.07;;;15.50;61.60;;;;;;20568;6819;336095;-76
2023/05/16 04:17:38;;;;;;;20.10;18.50;;;15.50;60.80;;;;;;20592;6819;278105;-76
2023/05/16 04:20:07;;;;;;;18.47;16.97;;;15.70;60.30;;;;;;20592;6819;282521;-77
2023/05/16 04:22:32;;;;;;;16.52;15.27;;;15.90;60.70;;;;;;20559;6819;312111;-77
2023/05/16 04:24:58;;;;;;;16.30;15.03;;;16.00;59.80;;;;;;20574;6817;277823;-77
2023/05/16 04:27:25;;;;;;;14.17;13.07;;;16.20;58.60;;;;;;20798;6818;118061;-76
2023/05/16 04:29:49;;;;;;;14.60;13.50;;;16.00;59.60;;;;;;20589;6818;337038;-76
2023/05/16 04:32:16;;;;;;;13.20;12.20;;;15.90;59.60;;;;;;20808;6818;117480;-76
2023/05/16 04:34:43;;;;;;;16.87;15.53;;;15.80;60.20;;;;;;20574;6818;307067;-80
2023/05/16 04:37:06;;;;;;;17.48;15.98;;;15.80;59.60;;;;;;20778;6818;123340;-75
2023/05/16 04:39:31;;;;;;;18.97;17.17;;;15.80;60.10;;;;;;20599;6818;279811;-75
2023/05/16 04:41:58;;;;;;;24.90;22.27;;;15.80;59.60;;;;;;20802;6818;117831;-75
2023/05/16 04:44:23;;;;;;;27.40;24.83;;;15.70;59.50;;;;;;20589;6819;307164;-78
2023/05/16 04:46:49;;;;;;;28.07;25.17;;;15.70;59.50;;;;;;20786;6819;117886;-77
2023/05/16 04:49:15;;;;;;;29.20;26.10;;;15.40;60.50;;;;;;20786;6819;124758;-77
2023/05/16 04:51:41;;;;;;;28.50;25.50;;;15.30;60.30;;;;;;20798;6819;117933;-77
2023/05/16 04:54:07;;;;;;;29.90;26.07;;;15.10;61.20;;;;;;20810;6819;116547;-75
2023/05/16 04:56:33;;;;;;;27.37;24.50;;;15.00;62.10;;;;;;20809;6819;117989;-79
2023/05/16 04:58:57;;;;;;;32.07;27.10;;;14.80;62.50;;;;;;20791;6819;121350;-78
2023/05/16 05:01:24;;;;;;;32.10;27.13;;;14.60;63.20;;;;;;20812;6819;121157;-77
2023/05/16 05:03:49;;;;;;;30.43;27.07;;;14.60;63.20;;;;;;20805;6819;117498;-77
2023/05/16 05:06:17;;;;;;;34.97;31.43;;;14.90;62.80;;;;;;20593;6819;281586;-78
2023/05/16 05:08:43;;;;;;;32.17;28.63;;;14.90;62.80;;;;;;20796;6819;117454;-77
2023/05/16 05:11:09;;;;;;;28.73;25.73;;;14.90;63.00;;;;;;20786;6819;117970;-77
2023/05/16 05:13:35;;;;;;;35.95;32.33;;;14.90;63.00;;;;;;20580;6819;340772;-77
2023/05/16 05:16:03;;;;;;;36.00;31.30;;;15.30;61.60;;;;;;20806;6819;117685;-78
2023/05/16 05:18:28;;;;;;;37.07;33.33;;;15.20;61.50;;;;;;20585;6819;278014;-78
2023/05/16 05:20:54;;;;;;;68.60;61.27;;;15.40;60.40;;;;;;20598;6819;306537;-78
2023/05/16 05:23:20;;;;;;;36.37;31.90;;;15.70;59.60;;;;;;20788;6819;117479;-79
2023/05/16 05:25:45;;;;;;;40.28;36.17;;;15.70;59.60;;;;;;20569;6819;336654;-79
2023/05/16 05:28:11;;;;;;;36.97;32.20;;;15.80;59.10;;;;;;20803;6819;117908;-78
2023/05/16 05:30:37;;;;;;;41.43;37.13;;;15.70;59.50;;;;;;20545;6819;300197;-79
2023/05/16 05:33:02;;;;;;;36.17;32.38;;;15.80;58.90;;;;;;20750;6819;117607;-78
2023/05/16 05:35:28;;;;;;;43.20;38.60;;;15.70;59.40;;;;;;20592;6817;307445;-77
2023/05/16 05:37:53;;;;;;;43.20;38.80;;;15.90;58.40;;;;;;20570;6818;313749;-76
2023/05/16 05:40:19;;;;;;;35.83;32.03;;;16.00;57.20;;;;;;20807;6818;117816;-76
2023/05/16 05:42:44;;;;;;;43.75;39.25;;;15.90;57.70;;;;;;20599;6818;316671;-76
2023/05/16 05:45:10;;;;;;;41.63;34.30;;;15.90;57.10;;;;;;20773;6818;123544;-76
2023/05/16 05:47:35;;;;;;;42.83;38.33;;;15.80;57.80;;;;;;20591;6818;311981;-76
2023/05/16 05:50:02;;;;;;;44.77;40.17;;;16.00;57.90;;;;;;20590;6818;307385;-77
2023/05/16 05:52:27;;;;;;;41.87;36.10;;;16.00;57.20;;;;;;20796;6818;117402;-76
2023/05/16 05:54:53;;;;;;;40.97;33.97;;;15.50;58.50;;;;;;20807;6818;117436;-76
2023/05/16 05:57:20;;;;;;;45.83;40.60;;;15.50;58.50;;;;;;20569;6819;336984;-76
2023/05/16 05:59:45;;;;;;;44.93;40.07;;;15.70;57.70;;;;;;20592;6819;291624;-76
2023/05/16 06:02:12;;;;;;;47.00;40.97;;;15.70;57.70;;;;;;20590;6819;307066;-76
2023/05/16 06:04:38;;;;;;;43.13;38.70;;;15.90;57.10;;;;;;20587;6819;307882;-77
2023/05/16 06:07:03;;;;;;;44.87;40.10;;;16.10;57.40;;;;;;20578;6819;307456;-74
2023/05/16 06:09:30;;;;;;;36.07;31.80;;;16.00;57.60;;;;;;20810;6819;120234;-73
2023/05/16 06:11:55;;;;;;;34.60;30.90;;;16.00;57.60;;;;;;20805;6819;117472;-77
2023/05/16 06:14:21;;;;;;;41.40;37.10;;;15.70;58.90;;;;;;20599;6819;306992;-74
2023/05/16 06:16:47;;;;;;;37.20;32.08;;;15.80;58.50;;;;;;20806;6819;120177;-75
2023/05/16 06:19:14;;;;;;;33.80;30.20;;;15.80;58.90;;;;;;20788;6819;127237;-73
2023/05/16 06:21:38;;;;;;;35.50;30.17;;;15.40;60.20;;;;;;20802;6819;117631;-75
2023/05/16 06:24:04;;;;;;;32.33;28.83;;;15.40;60.10;;;;;;20809;6819;117488;-77
2023/05/16 06:26:30;;;;;;;38.77;35.07;;;15.30;60.60;;;;;;20600;6819;291917;-76
2023/05/16 06:28:57;;;;;;;33.63;29.93;;;15.60;60.30;;;;;;20797;6819;121406;-77
2023/05/16 06:31:23;;;;;;;31.63;28.23;;;15.60;59.70;;;;;;20807;6819;117614;-77
2023/05/16 06:33:49;;;;;;;33.70;29.43;;;15.30;60.80;;;;;;20805;6819;117468;-78
2023/05/16 06:36:15;;;;;;;37.03;33.47;;;15.30;60.80;;;;;;20590;6819;307021;-76
2023/05/16 06:38:41;;;;;;;38.30;34.47;;;15.90;59.10;;;;;;20594;6819;307332;-76
2023/05/16 06:41:06;;;;;;;32.83;29.37;;;15.90;59.10;;;;;;20785;6819;117718;-76
2023/05/16 06:43:32;;;;;;;32.13;28.33;;;15.90;59.30;;;;;;20804;6819;117616;-75
2023/05/16 06:45:58;;;;;;;37.67;33.93;;;15.90;58.90;;;;;;20589;6819;307029;-75
2023/05/16 06:48:24;;;;;;;32.70;29.50;;;15.90;58.90;;;;;;20806;6817;118029;-75
2023/05/16 06:50:53;;;;;;;31.67;28.40;;;15.80;59.80;;;;;;20806;6818;118078;-76
2023/05/16 06:53:16;;;;;;;32.23;28.13;;;15.80;59.70;;;;;;20762;6818;124025;-78
2023/05/16 06:55:41;;;;;;;32.72;28.90;;;15.60;60.10;;;;;;20806;6818;117391;-74
2023/05/16 06:58:08;;;;;;;31.17;27.83;;;15.50;60.70;;;;;;20806;6818;117955;-76
2023/05/16 07:00:32;;;;;;;36.93;33.33;;;15.40;61.00;;;;;;20577;6818;310845;-75
2023/05/16 07:02:58;;;;;;;36.45;32.92;;;15.60;59.40;;;;;;20578;6818;278919;-75
2023/05/16 07:05:24;;;;;;;33.67;30.13;;;16.00;59.10;;;;;;20805;6818;117595;-76
2023/05/16 07:07:51;;;;;;;29.57;26.50;;;15.80;59.10;;;;;;20805;6819;118120;-75
2023/05/16 07:10:16;;;;;;;28.57;25.63;;;15.80;59.10;;;;;;20802;6819;117525;-76
2023/05/16 07:12:42;;;;;;;27.70;24.80;;;15.70;60.00;;;;;;20805;6819;117973;-75
2023/05/16 07:15:08;;;;;;;31.62;28.73;;;15.50;60.70;;;;;;20577;6819;306626;-75
2023/05/16 07:17:34;;;;;;;32.03;29.03;;;15.80;59.00;;;;;;20602;6819;277899;-76
2023/05/16 07:20:00;;;;;;;31.27;28.58;;;16.20;58.50;;;;;;20597;6819;291479;-76
2023/05/16 07:22:25;;;;;;;27.10;24.33;;;16.50;57.20;;;;;;20804;6819;117510;-75
2023/05/16 07:24:55;;;;;;;24.87;22.47;;;16.20;57.80;;;;;;20808;6819;117447;-75
2023/05/16 07:27:17;;;;;;;28.70;26.17;;;16.20;57.80;;;;;;20503;6837;336530;-76
2023/05/16 07:29:43;;;;;;;28.52;25.95;;;16.30;56.30;;;;;;20537;6837;307174;-75
2023/05/16 07:32:09;;;;;;;26.27;23.60;;;16.30;56.30;;;;;;20749;6837;120003;-78
2023/05/16 07:34:35;;;;;;;25.20;22.57;;;16.30;56.30;;;;;;20744;6837;120161;-75
2023/05/16 07:37:00;;;;;;;23.07;20.87;;;16.00;57.20;;;;;;20726;6834;118447;-76
2023/05/16 07:39:26;;;;;;;28.17;25.57;;;15.80;58.00;;;;;;20553;6834;277147;-74
2023/05/16 07:41:51;;;;;;;28.77;26.27;;;15.90;56.90;;;;;;20547;6834;311617;-75
2023/05/16 07:44:17;;;;;;;23.20;21.10;;;16.20;55.50;;;;;;20740;6833;117836;-74
2023/05/16 07:46:43;;;;;;;29.67;26.95;;;16.10;56.00;;;;;;20542;6833;282563;-75
2023/05/16 07:49:08;;;;;;;30.00;27.30;;;16.10;55.60;;;;;;20507;6833;305174;-75
2023/05/16 07:51:35;;;;;;;30.67;27.67;;;16.30;55.00;;;;;;20536;6833;306665;-75
2023/05/16 07:54:00;;;;;;;25.40;22.80;;;16.40;55.00;;;;;;20755;6833;117709;-75
2023/05/16 07:56:27;;;;;;;28.37;25.87;;;16.20;55.10;;;;;;20546;6833;277806;-80
2023/05/16 07:58:52;;;;;;;24.53;22.13;;;16.10;55.00;;;;;;20755;6831;117650;-75
2023/05/16 08:01:18;;;;;;;26.95;24.55;;;15.90;55.50;;;;;;20532;6832;314913;-75
2023/05/16 08:03:43;;;;;;;22.80;20.77;;;15.90;54.90;;;;;;20767;6832;117483;-75
2023/05/16 08:06:09;;;;;;;23.13;20.93;;;15.80;55.50;;;;;;20767;6832;117538;-74
2023/05/16 08:08:35;;;;;;;26.77;24.48;;;15.50;56.30;;;;;;20548;6832;341240;-74
2023/05/16 08:11:02;;;;;;;25.08;22.50;;;15.50;57.10;;;;;;20748;6832;117624;-79
2023/05/16 08:13:28;;;;;;;24.73;22.23;;;15.50;56.60;;;;;;20755;6832;117890;-74
2023/05/16 08:15:53;;;;;;;21.20;19.20;;;15.20;57.20;;;;;;20758;6832;117912;-75
2023/05/16 08:18:19;;;;;;;24.25;21.95;;;15.00;57.80;;;;;;20765;6832;117948;-75
2023/05/16 08:20:44;;;;;;;26.37;24.02;;;14.80;58.40;;;;;;20548;6833;311748;-77
2023/05/16 08:23:10;;;;;;;22.48;20.25;;;15.00;57.60;;;;;;20739;6833;117714;-75
2023/05/16 08:25:36;;;;;;;21.55;19.48;;;15.10;57.80;;;;;;20762;6833;117684;-78
2023/05/16 08:28:01;;;;;;;19.70;17.87;;;14.90;58.40;;;;;;20755;6833;119799;-75
2023/05/16 08:30:27;;;;;;;24.33;22.23;;;14.80;59.10;;;;;;20549;6833;277622;-75
2023/05/16 08:32:52;;;;;;;23.40;21.40;;;15.00;58.00;;;;;;20547;6833;319223;-74
2023/05/16 08:35:19;;;;;;;20.20;18.50;;;15.70;56.20;;;;;;20509;6833;307522;-75
2023/05/16 08:37:45;;;;;;;15.50;14.20;;;15.50;57.30;;;;;;20736;6833;117408;-79
2023/05/16 08:40:11;;;;;;;15.40;14.23;;;15.50;56.50;;;;;;20544;6833;312421;-76
2023/05/16 08:42:36;;;;;;;12.13;11.23;;;15.60;55.10;;;;;;20758;6833;117502;-79
2023/05/16 08:45:02;;;;;;;11.98;10.90;;;15.50;55.70;;;;;;20744;6833;118492;-77
2023/05/16 08:47:28;;;;;;;12.97;12.07;;;15.30;56.30;;;;;;20543;6833;282009;-76
2023/05/16 08:49:53;;;;;;;13.68;12.77;;;15.40;55.60;;;;;;20542;6833;278095;-75
2023/05/16 08:52:19;;;;;;;13.43;12.50;;;15.60;54.10;;;;;;20539;6833;307036;-74
2023/05/16 08:54:44;;;;;;;11.88;10.88;;;15.90;53.50;;;;;;20746;6833;117961;-74
2023/05/16 08:57:11;;;;;;;14.02;13.10;;;15.70;54.20;;;;;;20531;6833;277230;-75
2023/05/16 08:59:37;;;;;;;12.37;11.57;;;15.70;54.20;;;;;;20762;6833;117491;-75
2023/05/16 09:02:03;;;;;;;11.63;10.70;;;15.60;55.10;;;;;;20769;6833;117882;-74
2023/05/16 09:04:29;;;;;;;11.30;10.53;;;15.30;55.90;;;;;;20761;6833;118302;-75
2023/05/16 09:06:55;;;;;;;11.40;10.60;;;15.10;56.50;;;;;;20746;6833;117559;-79
2023/05/16 09:09:20;;;;;;;15.07;13.98;;;14.90;57.10;;;;;;20549;6833;277586;-76
2023/05/16 09:11:46;;;;;;;13.23;12.33;;;15.10;56.10;;;;;;20759;6831;117975;-75
2023/05/16 09:14:11;;;;;;;12.17;11.07;;;15.10;56.50;;;;;;20763;6832;117380;-75
2023/05/16 09:16:37;;;;;;;13.25;12.25;;;15.00;57.00;;;;;;20760;6832;118583;-80
2023/05/16 09:19:03;;;;;;;13.00;11.80;;;14.90;57.70;;;;;;20738;6832;121290;-75
2023/05/16 09:21:28;;;;;;;14.73;13.73;;;14.80;58.20;;;;;;20540;6832;298509;-76
2023/05/16 09:23:54;;;;;;;14.20;13.10;;;15.00;56.90;;;;;;20757;6832;117384;-74
2023/05/16 09:26:20;;;;;;;14.90;13.70;;;15.10;57.00;;;;;;20776;6832;117915;-75
2023/05/16 09:28:45;;;;;;;17.60;16.20;;;15.00;57.40;;;;;;20562;6832;277645;-74
2023/05/16 09:31:25;;;;;;;15.90;14.60;;;15.20;55.80;;;;;;20752;6833;123184;-76
2023/05/16 09:33:49;;;;;;;16.47;15.00;;;15.20;56.20;;;;;;20761;6833;117963;-76
2023/05/16 09:36:14;;;;;;;16.03;14.57;;;15.00;56.80;;;;;;20771;6833;117048;-76
2023/05/16 09:38:40;;;;;;;15.03;13.73;;;14.80;57.20;;;;;;20761;6833;117833;-76
2023/05/16 09:41:05;;;;;;;16.23;14.73;;;14.70;57.50;;;;;;20755;6833;121614;-71
2023/05/16 09:43:31;;;;;;;16.13;14.23;;;14.50;57.60;;;;;;20775;6833;118193;-76
2023/05/16 09:45:56;;;;;;;18.60;17.00;;;14.40;57.80;;;;;;20545;6833;306563;-78
2023/05/16 09:48:22;;;;;;;16.50;15.03;;;14.60;55.30;;;;;;20763;6833;116570;-76
2023/05/16 09:50:54;;;;;;;16.17;14.87;;;14.70;55.80;;;;;;20777;6833;117370;-76
2023/05/16 09:53:17;;;;;;;17.73;16.13;;;14.40;56.90;;;;;;20719;6833;121962;-77
2023/05/16 09:55:42;;;;;;;18.40;17.03;;;14.40;56.90;;;;;;20559;6833;307061;-74
2023/05/16 09:58:08;;;;;;;19.83;18.33;;;15.00;55.60;;;;;;20571;6833;277678;-75
2023/05/16 10:00:34;;;;;;;19.50;18.00;;;15.00;55.60;;;;;;20569;6833;307520;-78
2023/05/16 10:03:00;;;;;;;17.70;16.30;;;15.30;54.60;;;;;;20737;6833;118442;-76
2023/05/16 10:05:25;;;;;;;16.97;15.43;;;15.30;55.00;;;;;;20750;6833;118082;-76
2023/05/16 10:07:51;;;;;;;21.20;19.40;;;15.00;55.70;;;;;;20530;6833;308239;-76
2023/05/16 10:10:19;;;;;;;18.43;16.83;;;15.10;55.70;;;;;;20747;6833;68201;-76
2023/05/16 10:12:45;;;;;;;21.50;19.50;;;15.00;55.80;;;;;;20546;6833;277584;-75
2023/05/16 10:15:11;;;;;;;21.55;19.60;;;15.10;54.70;;;;;;20524;6833;293372;-74
2023/05/16 10:17:37;;;;;;;21.67;19.87;;;15.40;54.60;;;;;;20543;6833;277555;-73
2023/05/16 10:20:04;;;;;;;21.10;19.40;;;15.80;54.00;;;;;;20538;6833;308429;-73
2023/05/16 10:22:30;;;;;;;19.80;18.10;;;15.80;53.90;;;;;;20747;6831;118560;-72
2023/05/16 10:25:12;;;;;;;20.83;19.02;;;15.60;54.50;;;;;;20524;6832;311539;-73
2023/05/16 10:27:38;;;;;;;19.03;17.50;;;15.60;54.70;;;;;;20744;6832;118505;-73
2023/05/16 10:30:04;;;;;;;19.00;17.17;;;15.10;56.60;;;;;;20747;6832;121191;-76
2023/05/16 10:32:30;;;;;;;22.37;20.43;;;15.20;56.80;;;;;;20537;6832;297070;-74
2023/05/16 10:34:56;;;;;;;24.92;22.75;;;15.50;54.80;;;;;;20513;6832;310349;-74
2023/05/16 10:37:21;;;;;;;21.33;19.33;;;15.50;54.80;;;;;;20751;6832;118402;-74
2023/05/16 10:39:47;;;;;;;19.17;17.47;;;15.50;55.30;;;;;;20752;6832;117413;-74
2023/05/16 10:42:17;;;;;;;19.55;17.50;;;15.20;55.70;;;;;;20757;6833;117360;-73
2023/05/16 10:44:38;;;;;;;23.60;21.50;;;15.00;56.40;;;;;;20515;6833;307467;-74
2023/05/16 10:47:04;;;;;;;24.90;22.70;;;15.10;56.30;;;;;;20512;6833;280969;-73
2023/05/16 10:49:29;;;;;;;21.00;19.10;;;15.40;55.90;;;;;;20732;6833;122100;-74
2023/05/16 10:52:05;;;;;;;23.12;21.23;;;15.40;56.20;;;;;;20538;6833;278140;-74
2023/05/16 10:54:33;;;;;;;22.00;19.90;;;15.50;55.50;;;;;;20728;6833;117951;-75
2023/05/16 10:56:59;;;;;;;20.07;18.17;;;15.30;55.80;;;;;;20712;6833;123403;-74
2023/05/16 10:59:25;;;;;;;21.47;19.47;;;15.10;56.40;;;;;;20735;6833;118084;-77
2023/05/16 11:01:53;;;;;;;22.17;20.07;;;14.90;57.00;;;;;;20728;6833;120579;-73
2023/05/16 11:04:18;;;;;;;25.83;23.40;;;14.70;57.40;;;;;;20527;6833;308469;-77
2023/05/16 11:06:44;;;;;;;25.27;23.08;;;14.90;56.60;;;;;;20541;6833;307237;-73
2023/05/16 11:09:10;;;;;;;26.53;24.20;;;15.20;55.80;;;;;;20522;6833;278074;-72
2023/05/16 11:11:52;;;;;;;23.67;21.02;;;15.40;55.30;;;;;;20752;6833;117694;-75
2023/05/16 11:14:24;;;;;;;25.42;23.33;;;15.30;55.80;;;;;;20534;6833;306769;-73
2023/05/16 11:17:09;;;;;;;22.60;19.70;;;15.40;55.80;;;;;;20747;6833;118230;-74
2023/05/16 11:19:38;;;;;;;25.55;23.30;;;15.30;56.30;;;;;;20536;6833;307138;-70
2023/05/16 11:22:18;;;;;;;25.75;23.45;;;15.60;54.70;;;;;;20536;6833;277367;-72
2023/05/16 11:24:57;;;;;;;22.97;20.70;;;15.60;54.70;;;;;;20724;6833;117497;-73
2023/05/16 11:27:28;;;;;;;25.35;22.95;;;15.50;55.30;;;;;;20530;6833;336257;-75
2023/05/16 11:29:55;;;;;;;22.37;20.00;;;15.50;54.80;;;;;;20748;6833;117602;-75
2023/05/16 11:32:21;;;;;;;22.10;19.80;;;15.40;55.40;;;;;;20729;6833;117661;-75
2023/05/16 11:34:47;;;;;;;21.20;18.63;;;15.10;56.00;;;;;;20751;6831;117380;-74
2023/05/16 11:37:12;;;;;;;20.60;18.65;;;14.90;56.70;;;;;;20749;6832;118079;-75
2023/05/16 11:39:38;;;;;;;22.03;19.73;;;14.70;57.20;;;;;;20724;6832;120210;-76
2023/05/16 11:42:03;;;;;;;25.10;22.70;;;14.60;57.70;;;;;;20551;6832;306680;-73
2023/05/16 11:44:29;;;;;;;22.87;20.67;;;14.80;56.90;;;;;;20759;6832;117490;-74
2023/05/16 11:46:55;;;;;;;25.37;23.05;;;14.80;57.00;;;;;;20553;6832;307601;-77
2023/05/16 11:49:20;;;;;;;25.57;23.27;;;15.10;56.40;;;;;;20410;6832;311781;-74
2023/05/16 11:51:46;;;;;;;20.80;18.90;;;15.40;55.60;;;;;;20757;6832;117624;-72
2023/05/16 11:54:11;;;;;;;24.77;22.52;;;15.30;55.80;;;;;;20544;6833;282102;-73
2023/05/16 11:56:37;;;;;;;22.55;20.45;;;15.40;55.50;;;;;;20751;6833;117985;-72
2023/05/16 11:59:02;;;;;;;20.00;17.90;;;15.40;56.10;;;;;;20734;6833;120264;-73
2023/05/16 12:01:35;;;;;;;25.53;23.27;;;15.20;56.90;;;;;;20547;6833;278094;-73
2023/05/16 12:04:00;;;;;;;22.73;20.63;;;15.30;57.00;;;;;;20755;6833;117578;-74
2023/05/16 12:06:26;;;;;;;18.73;16.77;;;15.30;57.30;;;;;;20769;6833;117959;-74
2023/05/16 12:08:51;;;;;;;22.37;20.17;;;15.10;57.50;;;;;;20550;6833;307087;-72
2023/05/16 12:11:17;;;;;;;22.73;20.53;;;15.10;58.00;;;;;;20537;6833;335753;-75
2023/05/16 12:13:42;;;;;;;22.03;20.03;;;15.30;58.00;;;;;;20546;6833;308892;-73
2023/05/16 12:16:10;;;;;;;21.20;19.00;;;15.50;58.10;;;;;;20548;6833;303839;-75